Time;durP1;ratioP1;P1;durP2;ratioP2;P2;SDS_P1;SDS_P2;PMS_P1;PMS_P2;Temp;Humidity;BMP_temperature;BMP_pressure;BME280_temperature;BME280_humidity;BME280_pressure;Samples;Min_cycle;Max_cycle;Signal;HPM_P1;HPM_P2
2022/05/05 00:01:32;;;;;;;1.80;0.20;;;;;;;6.35;43.46;100267.62;1843682;77;21017;-49
2022/05/05 00:03:59;;;;;;;0.53;0.20;;;;;;;6.34;43.57;100263.18;1846774;77;21132;-49
2022/05/05 00:06:26;;;;;;;1.80;0.20;;;;;;;6.30;43.56;100266.37;1844937;77;21052;-47
2022/05/05 00:08:54;;;;;;;1.17;0.30;;;;;;;6.26;43.67;100264.70;1845716;77;21088;-47
2022/05/05 00:14:24;;;;;;;0.83;0.20;;;;;;;6.21;43.70;100267.91;1844329;77;22098;-47
2022/05/05 00:16:57;;;;;;;0.20;0.10;;;;;;;6.21;43.98;100273.75;1843515;77;22020;-49
2022/05/05 00:19:24;;;;;;;1.00;0.20;;;;;;;6.16;43.98;100275.16;1847122;77;20867;-49
2022/05/05 00:21:50;;;;;;;0.40;0.20;;;;;;;6.13;44.14;100285.03;1848588;77;20894;-50
2022/05/05 00:24:17;;;;;;;4.23;0.30;;;;;;;6.08;43.93;100279.34;1845826;77;21004;-48
2022/05/05 00:26:44;;;;;;;2.83;0.20;;;;;;;6.06;44.12;100290.52;1841487;77;21025;-48
2022/05/05 00:29:10;;;;;;;0.30;0.17;;;;;;;6.05;44.15;100286.08;1844260;77;21144;-50
2022/05/05 00:31:37;;;;;;;0.70;0.20;;;;;;;6.05;44.16;100299.44;1844961;77;21486;-50
2022/05/05 00:34:03;;;;;;;0.43;0.20;;;;;;;6.05;44.42;100295.89;1844149;77;21079;-48
2022/05/05 00:36:30;;;;;;;0.90;0.20;;;;;;;6.06;44.36;100288.30;1848672;77;21167;-48
2022/05/05 00:38:56;;;;;;;0.50;0.23;;;;;;;6.05;44.42;100299.44;1847427;77;21395;-48
2022/05/05 00:41:23;;;;;;;0.40;0.20;;;;;;;6.04;44.34;100297.67;1847687;77;21137;-49
2022/05/05 00:43:50;;;;;;;2.50;0.20;;;;;;;6.01;44.42;100303.11;1843678;77;21004;-50
2022/05/05 00:46:16;;;;;;;0.37;0.20;;;;;;;5.99;44.35;100299.58;1848331;75;21127;-50
2022/05/05 00:48:43;;;;;;;0.27;0.10;;;;;;;6.00;44.62;100300.46;1846759;77;21049;-51
2022/05/05 00:51:10;;;;;;;0.43;0.23;;;;;;;5.98;44.52;100308.50;1846208;77;21036;-47
2022/05/05 00:53:37;;;;;;;0.43;0.10;;;;;;;5.96;44.54;100301.42;1849528;77;21142;-50
2022/05/05 00:56:07;;;;;;;0.30;0.20;;;;;;;5.97;44.60;100303.19;1849802;77;20866;-50
2022/05/05 00:58:34;;;;;;;0.50;0.20;;;;;;;5.95;44.37;100303.70;1849128;77;20917;-49
2022/05/05 01:01:04;;;;;;;0.50;0.20;;;;;;;5.90;44.49;100307.78;1849392;77;20929;-50
2022/05/05 01:03:34;;;;;;;0.50;0.30;;;;;;;5.87;44.57;100311.81;1849048;77;20891;-49
2022/05/05 01:06:02;;;;;;;5.00;0.30;;;;;;;5.86;44.80;100306.07;1848411;77;21089;-51
2022/05/05 01:08:29;;;;;;;0.70;0.20;;;;;;;5.86;45.19;100312.75;1849747;77;21399;-51
2022/05/05 01:10:55;;;;;;;0.50;0.30;;;;;;;5.84;45.09;100321.70;1848774;77;21644;-50
2022/05/05 01:13:22;;;;;;;0.90;0.20;;;;;;;5.81;44.95;100321.30;1851596;77;20862;-48
2022/05/05 01:15:49;;;;;;;1.20;0.30;;;;;;;5.77;45.03;100321.40;1852127;77;20897;-53
2022/05/05 01:18:15;;;;;;;0.87;0.30;;;;;;;5.76;45.15;100323.64;1848610;77;22143;-52
2022/05/05 01:20:49;;;;;;;1.33;0.30;;;;;;;5.74;45.04;100322.33;1844799;77;21627;-53
2022/05/05 01:23:15;;;;;;;0.45;0.20;;;;;;;5.74;45.36;100317.44;1853717;77;20925;-51
2022/05/05 01:28:27;;;;;;;0.50;0.30;;;;;;;5.70;45.64;100327.30;1849759;77;20913;-50
2022/05/05 01:30:54;;;;;;;0.50;0.23;;;;;;;5.68;45.38;100329.14;1806798;78;22512;-52
2022/05/05 01:33:23;;;;;;;0.20;0.20;;;;;;;5.69;45.58;100333.58;1808761;78;21459;-51
2022/05/05 01:35:55;;;;;;;0.77;0.27;;;;;;;5.69;45.85;100336.24;1813687;78;20875;-51
2022/05/05 01:38:23;;;;;;;2.17;0.20;;;;;;;5.68;46.20;100335.81;1781964;80;20953;-50
2022/05/05 01:40:50;;;;;;;0.73;0.20;;;;;;;5.64;45.94;100327.42;1804684;78;21032;-51
2022/05/05 01:43:21;;;;;;;0.50;0.20;;;;;;;5.58;45.83;100335.10;1805439;78;21110;-52
2022/05/05 01:45:48;;;;;;;0.30;0.20;;;;;;;5.57;46.32;100336.46;1776940;80;20969;-53
2022/05/05 01:48:14;;;;;;;8.13;0.20;;;;;;;5.53;46.43;100336.11;1775955;80;21595;-51
2022/05/05 01:50:41;;;;;;;0.70;0.30;;;;;;;5.48;46.75;100339.30;1776112;80;21499;-51
2022/05/05 01:53:07;;;;;;;2.40;0.30;;;;;;;5.42;47.16;100345.64;1784703;78;21043;-52
2022/05/05 01:55:33;;;;;;;0.63;0.20;;;;;;;5.33;47.24;100337.34;1777233;80;21401;-51
2022/05/05 01:58:01;;;;;;;0.50;0.20;;;;;;;5.25;47.65;100345.94;1775902;80;21026;-51
2022/05/05 02:00:28;;;;;;;0.70;0.23;;;;;;;5.19;48.49;100350.52;1775448;80;21023;-50
2022/05/05 02:02:55;;;;;;;2.60;0.40;;;;;;;5.11;48.11;100345.72;1779035;80;20922;-50
2022/05/05 02:05:22;;;;;;;0.30;0.20;;;;;;;5.05;48.66;100344.05;1779071;80;21049;-53
2022/05/05 02:07:49;;;;;;;1.40;0.20;;;;;;;4.99;49.48;100349.49;1772992;80;21376;-50
2022/05/05 02:10:17;;;;;;;0.80;0.30;;;;;;;4.94;49.81;100354.00;1776550;80;21037;-51
2022/05/05 02:12:45;;;;;;;0.80;0.30;;;;;;;4.88;50.31;100353.66;1774709;80;21083;-53
2022/05/05 02:15:13;;;;;;;0.63;0.30;;;;;;;4.82;50.20;100362.22;1776045;80;20916;-53
2022/05/05 02:17:42;;;;;;;0.70;0.20;;;;;;;4.78;50.34;100361.81;1782213;80;21444;-52
2022/05/05 02:20:11;;;;;;;1.80;0.30;;;;;;;4.74;50.65;100358.78;1781252;80;21148;-52
2022/05/05 02:22:40;;;;;;;0.50;0.23;;;;;;;4.67;51.00;100362.00;1782301;80;21046;-52
2022/05/05 02:25:08;;;;;;;0.40;0.20;;;;;;;4.59;50.66;100369.68;1781392;80;20977;-52
2022/05/05 02:27:48;;;;;;;1.63;0.43;;;;;;;4.51;50.71;100365.31;1774508;80;21525;-51
2022/05/05 02:30:17;;;;;;;1.67;0.30;;;;;;;4.47;51.01;100374.27;1778462;80;21038;-51
2022/05/05 02:32:43;;;;;;;2.87;0.30;;;;;;;4.45;51.20;100377.84;1772099;80;21426;-51
2022/05/05 02:35:10;;;;;;;1.10;0.30;;;;;;;4.42;51.59;100381.43;1762864;79;21061;-50
2022/05/05 02:40:22;;;;;;;;;;;;;;;4.36;51.97;100378.85;1767676;79;21140;-51
2022/05/05 02:42:48;;;;;;;3.43;0.40;;;;;;;4.34;51.54;100383.31;1762570;79;20263;-51
2022/05/05 02:45:15;;;;;;;0.97;0.40;;;;;;;4.34;51.76;100397.13;1763922;79;22298;-51
2022/05/05 02:47:41;;;;;;;0.77;0.20;;;;;;;4.33;52.11;100390.91;1766167;79;21030;-52
2022/05/05 02:50:08;;;;;;;1.63;0.30;;;;;;;4.32;52.41;100393.59;1745912;80;21080;-51
2022/05/05 02:52:35;;;;;;;0.60;0.30;;;;;;;4.33;52.69;100396.23;1772723;80;21061;-52
2022/05/05 02:55:01;;;;;;;0.40;0.30;;;;;;;4.32;52.70;100401.58;1769517;80;21550;-50
2022/05/05 02:57:28;;;;;;;1.00;0.30;;;;;;;4.30;52.92;100400.27;1745557;80;21109;-51
2022/05/05 02:59:55;;;;;;;5.40;0.40;;;;;;;4.29;53.20;100401.16;1771402;80;21100;-52
2022/05/05 03:02:21;;;;;;;2.30;0.77;;;;;;;4.29;52.56;100409.61;1750533;80;21069;-52
2022/05/05 03:04:48;;;;;;;1.00;0.30;;;;;;;4.30;53.27;100408.26;1756214;80;21040;-52
2022/05/05 03:07:15;;;;;;;1.57;0.30;;;;;;;4.32;53.58;100412.24;1755845;80;21080;-53
2022/05/05 03:09:42;;;;;;;7.83;0.93;;;;;;;4.33;53.90;100412.23;1761577;80;22017;-53
2022/05/05 03:12:09;;;;;;;2.50;0.30;;;;;;;4.35;53.99;100417.52;1755839;80;21669;-53
2022/05/05 03:14:37;;;;;;;0.57;0.30;;;;;;;4.38;54.26;100416.16;1756616;80;21091;-53
2022/05/05 03:17:04;;;;;;;0.50;0.20;;;;;;;4.38;54.51;100412.16;1755045;80;21128;-50
2022/05/05 03:19:31;;;;;;;0.60;0.30;;;;;;;4.39;54.71;100417.92;1762030;80;20978;-52
2022/05/05 03:22:00;;;;;;;0.50;0.30;;;;;;;4.38;54.79;100423.70;1758523;80;21104;-53
2022/05/05 03:24:26;;;;;;;0.57;0.30;;;;;;;4.39;54.97;100428.59;1756581;80;21216;-51
2022/05/05 03:26:53;;;;;;;1.60;0.30;;;;;;;4.40;55.14;100428.58;1754475;80;21021;-52
2022/05/05 03:29:19;;;;;;;1.13;0.37;;;;;;;4.42;55.16;100433.41;1755636;80;21060;-53
2022/05/05 03:31:46;;;;;;;0.60;0.40;;;;;;;4.46;55.68;100429.81;1754458;80;21081;-51
2022/05/05 03:34:12;;;;;;;1.13;0.33;;;;;;;4.44;55.44;100433.39;1766105;80;21081;-53
2022/05/05 03:36:39;;;;;;;0.80;0.30;;;;;;;4.46;55.58;100437.81;1777726;80;21017;-51
2022/05/05 03:39:05;;;;;;;0.40;0.27;;;;;;;4.53;55.73;100441.28;1779066;78;21318;-53
2022/05/05 03:41:32;;;;;;;1.57;0.30;;;;;;;4.58;55.93;100445.23;1781264;80;21735;-53
2022/05/05 03:43:58;;;;;;;1.30;0.37;;;;;;;4.61;55.23;100450.50;1779663;80;20962;-51
2022/05/05 03:46:25;;;;;;;1.67;0.30;;;;;;;4.67;55.48;100453.12;1793667;79;21019;-51
2022/05/05 03:48:53;;;;;;;0.67;0.20;;;;;;;4.73;55.60;100459.69;1781257;80;21361;-53
2022/05/05 03:51:19;;;;;;;0.57;0.30;;;;;;;4.80;55.25;100458.25;1777169;80;20958;-52
2022/05/05 03:53:45;;;;;;;1.63;0.40;;;;;;;4.90;55.19;100460.34;1777371;80;21034;-53
2022/05/05 03:56:11;;;;;;;1.47;0.30;;;;;;;5.00;53.55;100456.65;1776344;80;20868;-53
2022/05/05 03:58:38;;;;;;;2.30;0.30;;;;;;;5.11;53.00;100458.69;1776185;80;21079;-53
2022/05/05 04:01:04;;;;;;;0.77;0.30;;;;;;;5.24;52.21;100457.61;1775211;80;21108;-52
2022/05/05 04:03:31;;;;;;;0.77;0.30;;;;;;;5.41;51.76;100467.14;1805276;79;21325;-53
2022/05/05 04:06:06;;;;;;;4.03;0.30;;;;;;;5.60;51.68;100468.61;1803379;79;21060;-52
2022/05/05 04:08:33;;;;;;;0.70;0.30;;;;;;;5.86;50.78;100470.84;1779058;80;20966;-53
2022/05/05 04:11:01;;;;;;;0.43;0.30;;;;;;;6.18;49.87;100471.16;1776506;80;21396;-53
2022/05/05 04:13:28;;;;;;;0.80;0.20;;;;;;;6.49;47.93;100460.72;1777298;80;20911;-51
2022/05/05 04:15:54;;;;;;;1.83;0.30;;;;;;;6.81;46.82;100461.38;1774164;80;21009;-50
2022/05/05 04:18:20;;;;;;;0.70;0.30;;;;;;;7.14;45.59;100464.67;1800494;79;21034;-52
2022/05/05 04:20:47;;;;;;;0.60;0.20;;;;;;;7.47;45.33;100465.67;1805171;79;21385;-53
2022/05/05 04:23:14;;;;;;;2.03;0.60;;;;;;;7.81;44.12;100471.06;1800638;79;21554;-52
2022/05/05 04:25:41;;;;;;;1.73;0.40;;;;;;;7.98;43.33;100458.56;1798333;79;21148;-53
2022/05/05 04:28:08;;;;;;;0.87;0.40;;;;;;;7.95;41.81;100465.33;1773540;80;21049;-54
2022/05/05 04:30:34;;;;;;;0.63;0.30;;;;;;;7.87;42.39;100468.22;1789667;78;21325;-52
2022/05/05 04:33:02;;;;;;;2.03;0.30;;;;;;;8.06;42.51;100461.03;1782420;78;21238;-52
2022/05/05 04:35:29;;;;;;;2.20;0.33;;;;;;;8.15;42.50;100456.31;1782406;79;21136;-53
2022/05/05 04:37:56;;;;;;;2.30;0.30;;;;;;;8.24;41.44;100464.56;1809017;78;20883;-51
2022/05/05 04:40:22;;;;;;;3.07;0.40;;;;;;;8.22;42.02;100468.63;1807875;78;21493;-54
2022/05/05 04:42:49;;;;;;;1.20;0.37;;;;;;;8.22;42.04;100469.08;1804299;78;21068;-51
2022/05/05 04:45:15;;;;;;;0.60;0.30;;;;;;;8.19;41.89;100463.79;1780548;79;21037;-53
2022/05/05 04:47:43;;;;;;;0.70;0.40;;;;;;;8.16;42.02;100462.09;1790056;78;21481;-53
2022/05/05 04:50:10;;;;;;;1.20;0.30;;;;;;;8.19;42.26;100470.03;1781454;79;21112;-53
2022/05/05 04:52:37;;;;;;;1.20;0.40;;;;;;;8.25;42.36;100467.67;1808211;78;21088;-53
2022/05/05 04:55:04;;;;;;;1.00;0.33;;;;;;;8.32;42.25;100475.53;1808573;78;21378;-50
2022/05/05 04:57:30;;;;;;;1.43;0.40;;;;;;;8.33;41.84;100474.62;1773970;80;20903;-52
2022/05/05 04:59:59;;;;;;;0.90;0.40;;;;;;;8.33;41.85;100475.96;1785796;79;21746;-51
2022/05/05 05:02:26;;;;;;;1.13;0.50;;;;;;;8.39;41.96;100478.92;1764170;79;20955;-52
2022/05/05 05:04:52;;;;;;;4.10;0.50;;;;;;;8.48;41.64;100491.20;1786247;79;20918;-51
2022/05/05 05:07:18;;;;;;;1.97;0.50;;;;;;;8.57;41.37;100481.55;1787940;79;21060;-53
2022/05/05 05:09:48;;;;;;;1.00;0.40;;;;;;;8.64;41.07;100488.50;1774828;80;21578;-53
2022/05/05 05:12:15;;;;;;;1.67;0.40;;;;;;;8.67;41.05;100485.73;1782384;79;21143;-53
2022/05/05 05:14:43;;;;;;;0.63;0.40;;;;;;;8.73;41.15;100490.92;1782900;79;21076;-53
2022/05/05 05:17:09;;;;;;;2.70;0.50;;;;;;;8.77;40.99;100490.34;1783600;79;21038;-51
2022/05/05 05:19:36;;;;;;;1.20;0.50;;;;;;;8.78;41.08;100491.65;1774252;80;21534;-52
2022/05/05 05:22:05;;;;;;;1.20;0.40;;;;;;;8.82;41.10;100493.34;1806814;78;21032;-52
2022/05/05 05:24:32;;;;;;;0.63;0.40;;;;;;;8.80;40.48;100495.17;1806902;78;22051;-51
2022/05/05 05:26:59;;;;;;;10.73;0.90;;;;;;;8.73;40.98;100497.63;1782770;79;21496;-54
2022/05/05 05:29:25;;;;;;;2.20;0.60;;;;;;;8.71;41.36;100495.45;1793790;78;21742;-53
2022/05/05 05:31:52;;;;;;;1.03;0.50;;;;;;;8.78;41.36;100498.36;1785874;78;21105;-51
2022/05/05 05:34:18;;;;;;;2.00;0.47;;;;;;;8.89;41.08;100498.05;1763198;79;21559;-51
2022/05/05 05:36:45;;;;;;;1.47;0.40;;;;;;;8.98;41.29;100495.10;1745020;80;21064;-53
2022/05/05 05:39:11;;;;;;;3.00;0.50;;;;;;;9.05;41.35;100499.36;1742152;81;21097;-52
2022/05/05 05:41:37;;;;;;;0.60;0.40;;;;;;;9.17;40.88;100495.42;1740671;81;21088;-55
2022/05/05 05:44:05;;;;;;;0.87;0.40;;;;;;;9.26;40.30;100497.84;1739329;82;21026;-56
2022/05/05 05:46:32;;;;;;;5.53;0.50;;;;;;;9.32;40.18;100494.48;1742474;81;21101;-54
2022/05/05 05:48:58;;;;;;;1.33;0.40;;;;;;;9.42;39.88;100498.64;1753667;81;22850;-52
2022/05/05 05:51:25;;;;;;;0.57;0.30;;;;;;;9.54;39.90;100494.66;1754615;81;21041;-54
2022/05/05 05:53:52;;;;;;;0.77;0.40;;;;;;;9.64;39.52;100492.56;1769732;80;21036;-52
2022/05/05 05:56:18;;;;;;;0.50;0.30;;;;;;;9.75;39.60;100503.86;1770561;80;21159;-52
2022/05/05 05:58:45;;;;;;;1.57;0.30;;;;;;;9.87;39.45;100506.13;1742251;80;21102;-52
2022/05/05 06:01:11;;;;;;;0.60;0.30;;;;;;;9.97;38.77;100508.04;1742119;81;21167;-54
2022/05/05 06:03:54;;;;;;;0.43;0.30;;;;;;;10.00;38.79;100506.14;1756462;81;21044;-52
2022/05/05 06:06:24;;;;;;;2.03;0.30;;;;;;;10.06;38.54;100503.69;1757295;81;21620;-53
2022/05/05 06:08:50;;;;;;;1.90;0.30;;;;;;;10.10;38.32;100510.74;1758323;81;21398;-56
2022/05/05 06:11:19;;;;;;;1.40;0.30;;;;;;;10.11;38.11;100503.97;1756245;81;21008;-53
2022/05/05 06:13:45;;;;;;;2.13;0.40;;;;;;;10.14;38.25;100512.38;1755699;81;22290;-54
2022/05/05 06:16:11;;;;;;;2.50;0.33;;;;;;;10.20;38.08;100511.76;1755436;81;21036;-51
2022/05/05 06:18:39;;;;;;;0.70;0.30;;;;;;;10.23;37.60;100517.48;1753415;81;21127;-52
2022/05/05 06:21:05;;;;;;;0.90;0.30;;;;;;;10.17;37.57;100511.86;1755096;81;21153;-51
2022/05/05 06:26:14;;;;;;;0.40;0.20;;;;;;;10.22;37.62;100510.33;1843087;76;21949;-51
2022/05/05 06:28:40;;;;;;;2.20;0.20;;;;;;;10.16;37.16;100515.91;1798680;78;21029;-50
2022/05/05 06:31:06;;;;;;;1.10;0.20;;;;;;;10.08;37.64;100512.13;1800861;78;21386;-51
2022/05/05 06:33:33;;;;;;;1.00;0.30;;;;;;;10.07;37.70;100514.87;1799570;78;21020;-50
2022/05/05 06:35:59;;;;;;;0.30;0.30;;;;;;;10.04;37.83;100517.19;1796871;78;21175;-52
2022/05/05 06:38:26;;;;;;;2.00;0.23;;;;;;;10.03;37.50;100523.99;1802539;77;20996;-52
2022/05/05 06:40:52;;;;;;;0.40;0.20;;;;;;;10.04;37.74;100525.26;1798673;77;21092;-53
2022/05/05 06:43:18;;;;;;;0.50;0.20;;;;;;;10.10;37.93;100517.47;1800382;78;21238;-51
2022/05/05 06:45:46;;;;;;;0.30;0.20;;;;;;;10.21;37.09;100530.09;1798939;78;21040;-53
2022/05/05 06:48:13;;;;;;;2.10;0.40;;;;;;;10.28;37.25;100524.94;1801763;78;20925;-54
2022/05/05 06:50:39;;;;;;;1.77;0.30;;;;;;;10.33;35.29;100522.08;1804005;78;21352;-53
2022/05/05 06:53:06;;;;;;;2.50;0.30;;;;;;;10.32;34.78;100519.85;1799349;78;20867;-53
2022/05/05 06:55:32;;;;;;;0.40;0.20;;;;;;;10.32;34.41;100532.42;1803576;78;21213;-54
2022/05/05 06:57:59;;;;;;;1.13;0.20;;;;;;;10.32;35.01;100530.61;1798809;78;20936;-52
2022/05/05 07:01:51;;;;;;;0.60;0.20;;;;;;;10.40;35.73;100527.19;1801460;78;20940;-51
2022/05/05 07:02:53;;;;;;;1.20;0.60;;;;;;;10.53;35.55;100530.34;1795050;78;21435;-53
2022/05/05 07:05:28;;;;;;;1.90;0.30;;;;;;;10.60;34.00;100533.22;1799418;78;20904;-53
2022/05/05 07:07:55;;;;;;;1.37;0.20;;;;;;;10.64;33.61;100530.81;1799465;78;21139;-54
2022/05/05 07:13:07;;;;;;;1.63;0.70;;;;;;;10.84;32.69;100533.67;1798208;78;20922;-53
2022/05/05 07:15:33;;;;;;;0.87;0.40;;;;;;;10.92;33.31;100532.91;1800675;78;20882;-53
2022/05/05 07:18:00;;;;;;;0.50;0.30;;;;;;;10.97;33.53;100537.64;1793349;78;20870;-53
2022/05/05 07:20:26;;;;;;;1.43;0.27;;;;;;;11.03;33.84;100547.33;1796382;78;21905;-53
2022/05/05 07:22:52;;;;;;;0.30;0.10;;;;;;;11.08;32.92;100535.02;1798147;78;21442;-53
2022/05/05 07:25:19;;;;;;;2.53;0.50;;;;;;;11.14;33.21;100534.34;1795187;78;21036;-54
2022/05/05 07:27:46;;;;;;;1.47;0.30;;;;;;;11.24;33.20;100537.08;1793472;78;21605;-52
2022/05/05 07:30:13;;;;;;;2.20;0.43;;;;;;;11.34;32.78;100543.88;1795782;78;21494;-54
2022/05/05 07:32:41;;;;;;;1.63;0.17;;;;;;;11.38;32.40;100547.34;1802622;78;21986;-53
2022/05/05 07:35:11;;;;;;;1.13;0.30;;;;;;;11.42;32.65;100549.42;1794003;78;20933;-53
2022/05/05 07:37:39;;;;;;;1.33;0.20;;;;;;;11.46;32.63;100545.22;1791275;78;20976;-53
2022/05/05 07:40:07;;;;;;;0.33;0.20;;;;;;;11.51;32.25;100535.59;1793246;78;21060;-52
2022/05/05 07:42:37;;;;;;;0.60;0.30;;;;;;;11.53;32.78;100535.95;1790608;78;21040;-54
2022/05/05 07:45:04;;;;;;;2.47;0.30;;;;;;;11.53;32.55;100542.69;1798342;78;21146;-53
2022/05/05 07:47:31;;;;;;;0.60;0.20;;;;;;;11.45;31.97;100542.11;1800551;78;21017;-54
2022/05/05 07:49:57;;;;;;;1.20;0.20;;;;;;;11.33;31.93;100539.88;1802601;78;21031;-53
2022/05/05 07:52:24;;;;;;;0.40;0.20;;;;;;;11.26;31.98;100538.37;1799630;78;21057;-53
2022/05/05 07:54:50;;;;;;;0.67;0.20;;;;;;;11.22;32.23;100538.97;1797037;78;21452;-54
2022/05/05 07:57:20;;;;;;;1.33;0.30;;;;;;;11.21;32.43;100540.38;1793154;78;21255;-52
2022/05/05 07:59:46;;;;;;;1.03;0.30;;;;;;;11.21;32.49;100545.30;1798927;78;20859;-50
2022/05/05 08:02:15;;;;;;;1.03;0.30;;;;;;;11.16;32.61;100544.57;1798070;78;21300;-54
2022/05/05 08:04:43;;;;;;;3.00;0.30;;;;;;;11.19;32.69;100539.55;1795634;77;21864;-54
2022/05/05 08:07:10;;;;;;;0.87;0.30;;;;;;;11.25;32.88;100532.09;1800030;78;21372;-54
2022/05/05 08:09:37;;;;;;;0.40;0.30;;;;;;;11.33;33.21;100533.14;1801262;77;21411;-54
2022/05/05 08:12:06;;;;;;;0.40;0.20;;;;;;;11.43;32.94;100528.27;1793470;78;20945;-54
2022/05/05 08:14:32;;;;;;;0.40;0.20;;;;;;;11.50;32.48;100524.39;1794906;78;21049;-55
2022/05/05 08:16:58;;;;;;;0.63;0.30;;;;;;;11.54;32.32;100529.62;1792397;78;21105;-54
2022/05/05 08:19:25;;;;;;;0.40;0.20;;;;;;;11.61;32.52;100528.89;1793836;78;21056;-51
2022/05/05 08:21:51;;;;;;;0.37;0.20;;;;;;;11.66;31.96;100532.27;1794448;78;21028;-54
2022/05/05 08:29:48;;;;;;;0.55;0.20;;;;;;;11.86;32.32;100528.81;1793971;78;20241;-53
2022/05/05 08:32:15;;;;;;;4.60;0.30;;;;;;;11.96;32.20;100533.77;1791865;78;21008;-52
2022/05/05 08:34:43;;;;;;;0.78;0.30;;;;;;;12.07;32.25;100527.46;1794232;78;21035;-53
2022/05/05 08:37:09;;;;;;;0.50;0.20;;;;;;;12.13;31.92;100520.45;1793413;78;21325;-52
2022/05/05 08:39:35;;;;;;;1.40;0.40;;;;;;;12.12;30.66;100524.08;1792713;78;21005;-53
2022/05/05 08:42:04;;;;;;;2.00;0.30;;;;;;;12.08;30.75;100523.80;1797051;78;20897;-52
2022/05/05 08:44:30;;;;;;;1.70;0.30;;;;;;;12.08;31.15;100525.14;1795696;78;21053;-51
2022/05/05 08:46:57;;;;;;;1.22;0.30;;;;;;;12.10;31.24;100523.73;1750618;78;21131;-55
2022/05/05 08:49:24;;;;;;;0.37;0.20;;;;;;;12.15;31.19;100519.04;1762412;78;21534;-51
2022/05/05 08:52:08;;;;;;;0.88;0.30;;;;;;;12.26;31.37;100519.44;1792150;78;21080;-55
2022/05/05 08:54:35;;;;;;;0.75;0.20;;;;;;;12.42;31.30;100514.24;1805523;78;20881;-52
2022/05/05 08:57:01;;;;;;;5.05;0.20;;;;;;;12.51;31.25;100511.14;1800357;78;21042;-54
2022/05/05 08:59:28;;;;;;;1.42;0.30;;;;;;;12.58;31.34;100517.17;1795439;78;21517;-52
2022/05/05 09:01:54;;;;;;;1.35;0.30;;;;;;;12.63;31.40;100517.84;1793984;78;21081;-52
2022/05/05 09:06:48;;;;;;;0.90;0.23;;;;;;;12.65;29.45;100518.18;1861701;75;23276;-55
2022/05/05 09:09:36;;;;;;;0.75;0.25;;;;;;;12.52;31.27;100522.36;1846905;77;20917;-53
2022/05/05 09:12:16;;;;;;;0.47;0.30;;;;;;;12.55;30.56;100522.70;1851542;77;21221;-53
2022/05/05 09:14:53;;;;;;;0.60;0.35;;;;;;;12.59;30.42;100522.48;1777336;80;21104;-51
2022/05/05 09:17:23;;;;;;;0.37;0.20;;;;;;;12.61;30.08;100511.62;1775849;80;21030;-53
2022/05/05 09:19:54;;;;;;;0.85;0.20;;;;;;;12.64;30.41;100515.55;1788878;78;21487;-50
2022/05/05 09:22:25;;;;;;;1.17;0.30;;;;;;;12.69;30.51;100518.91;1778296;79;20982;-49
2022/05/05 09:24:57;;;;;;;0.70;0.23;;;;;;;12.76;28.45;100512.31;1782411;79;21005;-49
2022/05/05 09:27:33;;;;;;;0.60;0.20;;;;;;;12.74;29.14;100513.72;1790961;78;20946;-48
2022/05/05 09:30:13;;;;;;;0.42;0.20;;;;;;;12.79;29.56;100521.13;1795103;78;20858;-48
2022/05/05 09:32:46;;;;;;;2.20;0.30;;;;;;;12.87;29.43;100514.91;1782804;80;20968;-53
2022/05/05 09:35:15;;;;;;;1.95;0.25;;;;;;;13.02;29.26;100511.97;1775306;80;20926;-50
2022/05/05 09:37:49;;;;;;;0.40;0.20;;;;;;;13.15;28.65;100510.50;1793959;78;21096;-52
2022/05/05 09:40:18;;;;;;;0.78;0.30;;;;;;;13.24;28.68;100499.25;1795290;78;20918;-47
2022/05/05 09:42:52;;;;;;;1.27;0.30;;;;;;;13.34;29.49;100494.29;1784811;79;20902;-49
2022/05/05 09:45:31;;;;;;;3.90;0.30;;;;;;;13.41;27.81;100505.20;1785465;79;21334;-51
2022/05/05 09:48:04;;;;;;;1.92;0.20;;;;;;;13.37;28.48;100505.41;1784464;79;20914;-50
2022/05/05 09:50:29;;;;;;;3.12;0.20;;;;;;;13.35;28.14;100512.74;1784971;79;21413;-52
2022/05/05 09:58:35;;;;;;;0.30;0.20;;;;;;;13.55;27.80;100515.35;1816796;78;20898;-53
2022/05/05 10:01:09;;;;;;;0.30;0.20;;;;;;;13.64;27.12;100509.02;1791833;78;20952;-51
2022/05/05 10:04:05;;;;;;;1.35;0.40;;;;;;;13.73;27.45;100506.81;1776296;79;21412;-50
2022/05/05 10:06:42;;;;;;;0.80;0.25;;;;;;;13.79;26.64;100502.45;1815841;78;20910;-51
2022/05/05 10:09:13;;;;;;;0.70;0.30;;;;;;;13.76;26.64;100502.62;1792277;78;21483;-48
2022/05/05 10:11:40;;;;;;;0.30;0.20;;;;;;;13.76;27.59;100500.79;1817822;78;21029;-50
2022/05/05 10:14:09;;;;;;;0.95;0.30;;;;;;;13.82;27.45;100505.89;1775555;80;21041;-52
2022/05/05 10:16:40;;;;;;;0.75;0.30;;;;;;;13.86;27.07;100499.86;1795948;79;21485;-51
2022/05/05 10:19:07;;;;;;;0.50;0.30;;;;;;;13.90;26.94;100502.33;1796624;79;20862;-50
2022/05/05 10:21:59;;;;;;;0.40;0.30;;;;;;;13.90;26.26;100491.97;1797790;79;20917;-51
2022/05/05 10:24:31;;;;;;;1.95;0.30;;;;;;;13.88;27.26;100484.40;1793750;79;21033;-48
2022/05/05 10:27:00;;;;;;;1.30;0.20;;;;;;;13.96;27.43;100491.66;1785705;78;21012;-49
2022/05/05 10:29:35;;;;;;;1.80;0.20;;;;;;;14.04;26.83;100485.38;1812818;78;22353;-48
2022/05/05 10:32:18;;;;;;;0.65;0.20;;;;;;;14.09;26.76;100492.80;1778674;80;21578;-51
2022/05/05 10:34:46;;;;;;;0.68;0.40;;;;;;;14.12;26.26;100498.04;1805049;78;21555;-52
2022/05/05 10:37:14;;;;;;;0.47;0.20;;;;;;;14.01;26.50;100487.78;1819087;78;21333;-52
2022/05/05 10:39:46;;;;;;;0.30;0.23;;;;;;;13.98;26.24;100487.92;1818419;78;21008;-54
2022/05/05 10:42:21;;;;;;;5.37;0.30;;;;;;;13.92;26.78;100488.72;1781230;78;21075;-49
2022/05/05 10:45:14;;;;;;;0.57;0.30;;;;;;;13.91;27.44;100485.14;1778647;79;21112;-51
2022/05/05 10:47:59;;;;;;;1.17;0.28;;;;;;;13.99;27.07;100492.87;1786402;80;21048;-51
2022/05/05 10:50:43;;;;;;;;;;;;;;;14.05;26.39;100488.48;1795259;78;21407;-49
2022/05/05 10:53:31;;;;;;;2.25;0.20;;;;;;;13.99;26.57;100482.92;1774725;79;20215;-50
2022/05/05 10:55:59;;;;;;;0.95;0.30;;;;;;;13.98;26.57;100477.58;1774903;80;22186;-56
2022/05/05 10:59:05;;;;;;;3.58;0.40;;;;;;;13.93;26.49;100480.53;1791507;79;21044;-52
2022/05/05 11:01:56;;;;;;;3.98;0.40;;;;;;;13.92;26.75;100474.72;1792569;79;21044;-49
2022/05/05 11:04:31;;;;;;;2.27;0.30;;;;;;;14.01;26.50;100481.02;1791855;79;21069;-55
2022/05/05 11:07:25;;;;;;;1.10;0.28;;;;;;;14.12;26.45;100480.45;1779421;79;21489;-52
2022/05/05 11:09:52;;;;;;;1.25;0.30;;;;;;;14.23;26.30;100478.07;1774753;80;21516;-49
2022/05/05 11:12:22;;;;;;;2.72;0.30;;;;;;;14.31;25.28;100470.90;1750955;80;21072;-46
2022/05/05 11:23:45;;;;;;;1.72;0.20;;;;;;;14.33;25.79;100459.04;1776338;80;21143;-48
2022/05/05 11:26:18;;;;;;;;;;;;;;;14.41;25.69;100467.27;1779041;80;21266;-53
2022/05/05 11:28:45;;;;;;;1.20;0.20;;;;;;;14.45;26.39;100465.69;1774313;80;20266;-49
2022/05/05 11:31:29;;;;;;;4.12;0.30;;;;;;;14.51;26.37;100464.48;1766429;80;21407;-49
2022/05/05 11:34:00;;;;;;;1.50;0.30;;;;;;;14.58;25.77;100461.83;1773415;80;21061;-49
2022/05/05 11:36:37;;;;;;;1.65;0.20;;;;;;;14.62;25.60;100456.66;1771122;80;21126;-47
2022/05/05 11:39:03;;;;;;;1.32;0.30;;;;;;;14.63;25.19;100462.48;1774923;79;21599;-50
2022/05/05 11:41:30;;;;;;;2.50;0.20;;;;;;;14.60;25.32;100457.22;1774208;80;21114;-50
2022/05/05 11:44:14;;;;;;;0.50;0.28;;;;;;;14.56;26.01;100457.84;1774396;80;22468;-49
2022/05/05 11:46:41;;;;;;;1.37;0.25;;;;;;;14.58;26.13;100457.77;1774653;80;21100;-53
2022/05/05 11:49:08;;;;;;;0.30;0.20;;;;;;;14.64;25.67;100457.43;1773564;80;21182;-55
2022/05/05 11:51:35;;;;;;;5.37;0.28;;;;;;;14.66;25.41;100455.52;1776377;80;21040;-48
2022/05/05 11:54:08;;;;;;;1.65;0.20;;;;;;;14.64;25.32;100451.53;1774245;80;21135;-51
2022/05/05 11:56:36;;;;;;;2.55;0.20;;;;;;;14.62;25.47;100466.15;1771590;80;21112;-54
2022/05/05 12:02:12;;;;;;;0.75;0.20;;;;;;;14.62;25.01;100445.83;1775563;80;21082;-49
2022/05/05 12:04:51;;;;;;;0.72;0.23;;;;;;;14.59;25.46;100447.34;1775726;80;21073;-54
2022/05/05 12:07:20;;;;;;;0.40;0.20;;;;;;;14.61;26.03;100448.13;1763727;79;21489;-49
2022/05/05 12:09:48;;;;;;;2.08;0.20;;;;;;;14.64;25.00;100444.77;1759953;79;21101;-50
2022/05/05 12:12:18;;;;;;;2.05;0.53;;;;;;;14.66;24.46;100442.85;1764902;79;20953;-52
2022/05/05 12:14:48;;;;;;;2.85;0.20;;;;;;;14.66;23.82;100440.63;1766223;79;21772;-49
2022/05/05 12:17:20;;;;;;;0.33;0.23;;;;;;;14.63;24.00;100432.68;1763863;79;21076;-54